Time;durP1;ratioP1;P1;durP2;ratioP2;P2;SDS_P1;SDS_P2;PMS_P1;PMS_P2;Temp;Humidity;BMP_temperature;BMP_pressure;BME280_temperature;BME280_humidity;BME280_pressure;Samples;Min_cycle;Max_cycle;Signal;HPM_P1;HPM_P2
2019/12/25 00:01:44;;;;;;;5.1;1.5;;;;;;;6.69;76.45215;936.9413;;;;
2019/12/25 00:04:16;;;;;;;4.7;1.5;;;;;;;6.44;79.95898;936.9174;;;;
2019/12/25 00:06:42;;;;;;;4;1.4;;;;;;;6.44;80.70313;936.9069;;;;
2019/12/25 00:09:10;;;;;;;4.8;1.5;;;;;;;6.25;80.77148;936.9236;;;;
2019/12/25 00:11:38;;;;;;;5.2;1.5;;;;;;;5.95;79.66211;936.8141;;;;
2019/12/25 00:14:09;;;;;;;5.3;1.7;;;;;;;6.12;73.48047;936.7219;;;;
2019/12/25 00:19:08;;;;;;;6.8;1.6;;;;;;;6.56;77.1748;936.6184;;;;
2019/12/25 00:21:44;;;;;;;5.2;1.5;;;;;;;6.36;78.52832;936.6629;;;;
2019/12/25 00:24:09;;;;;;;5.6;1.4;;;;;;;6.25;81.2002;936.7283;;;;
2019/12/25 00:26:35;;;;;;;5.8;1.4;;;;;;;5.78;84.79102;936.7239;;;;
2019/12/25 00:29:00;;;;;;;7;1.6;;;;;;;5.86;83.59863;936.6242;;;;
2019/12/25 00:31:31;;;;;;;5.6;1.5;;;;;;;5.88;81.01758;936.6192;;;;
2019/12/25 00:34:21;;;;;;;8;1.6;;;;;;;5.91;76.16504;936.6462;;;;
2019/12/25 00:36:32;;;;;;;5.4;1.8;;;;;;;6.09;81.89258;936.6431;;;;
2019/12/25 00:38:57;;;;;;;6;1.9;;;;;;;6.17;74.15527;936.6472;;;;
2019/12/25 00:41:26;;;;;;;6.8;1.6;;;;;;;6.22;72.98926;936.6479;;;;
2019/12/25 00:43:51;;;;;;;5.4;1.7;;;;;;;6.24;74.96875;936.6325;;;;
2019/12/25 00:46:16;;;;;;;7.4;1.9;;;;;;;6.44;77.61621;936.7202;;;;
2019/12/25 00:48:43;;;;;;;7.8;1.8;;;;;;;6.42;80.67871;936.7776;;;;
2019/12/25 00:51:08;;;;;;;9.2;1.9;;;;;;;6.32;81.94727;936.7371;;;;
2019/12/25 00:56:18;;;;;;;9;2.1;;;;;;;6;79.10742;936.8223;;;;
2019/12/25 00:58:42;;;;;;;7.6;2.2;;;;;;;6.19;75.66113;936.854;;;;
2019/12/25 01:01:13;;;;;;;7.1;1.9;;;;;;;6.27;72.79102;936.826;;;;
2019/12/25 01:03:47;;;;;;;7.7;2;;;;;;;6.42;75.84961;936.9113;;;;
2019/12/25 01:06:04;;;;;;;6.7;1.9;;;;;;;6.58;73.9541;936.9456;;;;
2019/12/25 01:08:28;;;;;;;9.4;2;;;;;;;6.7;74.10059;936.9407;;;;
2019/12/25 01:11:00;;;;;;;6.9;1.9;;;;;;;6.72;76.9082;937.0795;;;;
2019/12/25 01:13:23;;;;;;;7.8;1.9;;;;;;;6.46;74.4541;937.0521;;;;
2019/12/25 01:15:50;;;;;;;7.7;1.8;;;;;;;6.36;76.35742;937.1816;;;;
2019/12/25 01:18:22;;;;;;;9.1;2.3;;;;;;;6.41;75.11133;936.968;;;;
2019/12/25 01:20:44;;;;;;;8.8;2.1;;;;;;;6.37;76.37012;937.1351;;;;
2019/12/25 01:23:16;;;;;;;7.1;1.8;;;;;;;6.29;80.18945;937.1301;;;;
2019/12/25 01:25:38;;;;;;;7.5;1.7;;;;;;;6.37;81.34766;937.1013;;;;
2019/12/25 01:28:04;;;;;;;7.7;2;;;;;;;6.27;80.83105;937.1747;;;;
2019/12/25 01:30:36;;;;;;;7.7;2.2;;;;;;;6.13;81.52734;937.1118;;;;
2019/12/25 01:33:10;;;;;;;9.9;2;;;;;;;6.05;82.38281;937.0081;;;;
2019/12/25 01:35:42;;;;;;;10;2;;;;;;;6.04;82.86719;937.0402;;;;
2019/12/25 01:38:08;;;;;;;9;2.4;;;;;;;5.87;83.13867;937.1579;;;;
2019/12/25 01:40:33;;;;;;;9.2;2.4;;;;;;;5.77;82.74512;937.0815;;;;
2019/12/25 01:42:57;;;;;;;8;2;;;;;;;5.8;82.88574;937.1028;;;;
2019/12/25 01:45:24;;;;;;;10.2;2.4;;;;;;;5.82;82.75586;937.1194;;;;
2019/12/25 01:47:54;;;;;;;10.8;2.6;;;;;;;5.84;82.55762;937.0923;;;;
2019/12/25 01:50:19;;;;;;;9.3;2;;;;;;;5.57;79.1084;937.0336;;;;
2019/12/25 01:52:49;;;;;;;6.4;1.8;;;;;;;5.65;80.56836;937.1008;;;;
2019/12/25 01:55:24;;;;;;;7.4;2.2;;;;;;;5.77;81.1875;937.0745;;;;
2019/12/25 01:57:56;;;;;;;6.3;1.7;;;;;;;5.67;76.34766;936.894;;;;
2019/12/25 02:00:19;;;;;;;8.3;1.5;;;;;;;5.67;75.42188;936.9677;;;;
2019/12/25 02:02:44;;;;;;;4.5;1.2;;;;;;;5.9;70.12109;936.7014;;;;
2019/12/25 02:05:10;;;;;;;4.1;1.2;;;;;;;6.21;69.4707;936.8658;;;;
2019/12/25 02:07:36;;;;;;;5.1;1.3;;;;;;;6.35;70.66992;936.813;;;;
2019/12/25 02:10:01;;;;;;;3.8;1.1;;;;;;;6.51;68.81738;936.7725;;;;
2019/12/25 02:12:29;;;;;;;3.9;1.1;;;;;;;6.72;67.17578;936.6871;;;;
2019/12/25 02:14:56;;;;;;;3.4;1.2;;;;;;;6.83;66.79785;936.6066;;;;
2019/12/25 02:17:26;;;;;;;7.1;1.4;;;;;;;6.9;67.18262;936.7458;;;;
2019/12/25 02:19:50;;;;;;;4.5;1.2;;;;;;;6.85;66.63086;936.8074;;;;
2019/12/25 02:22:15;;;;;;;5.1;1.1;;;;;;;6.78;67.31055;936.6986;;;;
2019/12/25 02:24:42;;;;;;;3.1;0.9;;;;;;;6.79;66.04395;936.6791;;;;
2019/12/25 02:27:06;;;;;;;4.2;1.2;;;;;;;6.85;67.24414;936.6055;;;;
2019/12/25 02:29:31;;;;;;;5.4;1.2;;;;;;;6.85;69.55176;936.5389;;;;
2019/12/25 02:32:01;;;;;;;3.2;1.1;;;;;;;6.76;69.34473;936.5154;;;;
2019/12/25 02:34:26;;;;;;;4.7;1.2;;;;;;;6.78;68.38574;936.5204;;;;
2019/12/25 02:36:55;;;;;;;3.7;1.1;;;;;;;6.86;66.44043;936.4141;;;;
2019/12/25 02:39:24;;;;;;;4.3;0.9;;;;;;;6.92;66.60742;936.3441;;;;
2019/12/25 02:41:54;;;;;;;3.7;0.9;;;;;;;6.96;68.64063;936.3448;;;;
2019/12/25 02:44:18;;;;;;;4.5;1.2;;;;;;;6.93;66.51953;936.3586;;;;
2019/12/25 02:46:51;;;;;;;4.6;0.9;;;;;;;6.9;67.36426;936.5408;;;;
2019/12/25 02:49:15;;;;;;;3.1;0.9;;;;;;;6.89;65.85742;936.5018;;;;
2019/12/25 02:51:46;;;;;;;4;0.9;;;;;;;6.98;65.8252;936.4086;;;;
2019/12/25 02:54:14;;;;;;;2.9;0.9;;;;;;;6.98;66.77637;936.4285;;;;
2019/12/25 02:56:40;;;;;;;2.7;0.9;;;;;;;6.99;66.06445;936.4991;;;;
2019/12/25 02:59:05;;;;;;;4.7;0.9;;;;;;;7.06;67.85449;936.4802;;;;
2019/12/25 03:01:32;;;;;;;2.3;0.7;;;;;;;7.1;66.85059;936.488;;;;
2019/12/25 03:03:56;;;;;;;3;0.8;;;;;;;7.16;69.04785;936.5193;;;;
2019/12/25 03:06:21;;;;;;;2.9;0.9;;;;;;;6.93;72.05469;936.5959;;;;
2019/12/25 03:08:47;;;;;;;2.8;1;;;;;;;6.62;75.95117;936.6961;;;;
2019/12/25 03:11:13;;;;;;;4;1;;;;;;;6.5;76.54297;936.7675;;;;
2019/12/25 03:13:39;;;;;;;4.7;1.3;;;;;;;6.37;76.50879;936.8577;;;;
2019/12/25 03:16:29;;;;;;;3.7;1.2;;;;;;;6.31;73.63574;936.7953;;;;
2019/12/25 03:19:26;;;;;;;2.5;0.9;;;;;;;6.48;70.38477;936.7986;;;;
2019/12/25 03:21:52;;;;;;;2.7;0.8;;;;;;;6.65;72.91406;936.7402;;;;
2019/12/25 03:24:31;;;;;;;4.7;1.3;;;;;;;6.58;76.00293;936.7637;;;;
2019/12/25 03:27:51;;;;;;;3.2;0.9;;;;;;;6.43;73.89551;936.7651;;;;
2019/12/25 03:29:30;;;;;;;4;1.1;;;;;;;6.29;76.24414;936.8013;;;;
2019/12/25 03:31:59;;;;;;;3.6;1.1;;;;;;;6.44;74.86914;936.745;;;;
2019/12/25 03:34:26;;;;;;;6.2;2.9;;;;;;;6.49;74.39063;936.6994;;;;
2019/12/25 03:36:58;;;;;;;3;1.4;;;;;;;6.56;74.53906;936.7102;;;;
2019/12/25 03:39:29;;;;;;;7;3.2;;;;;;;6.67;75.51855;936.7485;;;;
2019/12/25 03:42:25;;;;;;;2.5;1.1;;;;;;;6.71;74.29395;936.6624;;;;
2019/12/25 03:44:56;;;;;;;2.8;0.5;;;;;;;6.59;75.42578;936.7949;;;;
2019/12/25 03:47:21;;;;;;;2.4;0.6;;;;;;;6.64;76.88379;936.8397;;;;
2019/12/25 03:49:47;;;;;;;2.2;0.6;;;;;;;6.65;75.40332;936.8787;;;;
2019/12/25 03:52:13;;;;;;;2.2;0.8;;;;;;;6.63;75.50195;936.9266;;;;
2019/12/25 03:54:35;;;;;;;1.4;0.5;;;;;;;6.62;74.84277;937.0211;;;;
2019/12/25 03:57:09;;;;;;;1.3;0.5;;;;;;;6.59;75.92383;937.0012;;;;
2019/12/25 03:59:39;;;;;;;3.5;0.7;;;;;;;6.64;76.35059;937.0747;;;;
2019/12/25 04:05:27;;;;;;;1.5;0.7;;;;;;;6.58;77.26855;937.1663;;;;
2019/12/25 04:07:56;;;;;;;1.3;0.5;;;;;;;6.53;79.61328;937.2015;;;;
2019/12/25 04:10:23;;;;;;;1.1;0.4;;;;;;;6.45;79.38379;937.0338;;;;
2019/12/25 04:12:49;;;;;;;1.5;0.5;;;;;;;6.37;80.78223;937.2079;;;;
2019/12/25 04:15:16;;;;;;;2;0.5;;;;;;;6.24;80.63379;937.175;;;;
2019/12/25 04:17:44;;;;;;;2.6;0.9;;;;;;;6.24;81.58105;937.0721;;;;
2019/12/25 04:20:11;;;;;;;1.9;0.6;;;;;;;6.36;80.54102;936.9839;;;;
2019/12/25 04:22:37;;;;;;;1.6;0.5;;;;;;;6.22;80.46094;936.9554;;;;
2019/12/25 04:25:03;;;;;;;1.1;0.5;;;;;;;6.17;80.29395;937.0513;;;;
2019/12/25 04:27:34;;;;;;;1.2;0.4;;;;;;;6.29;79.85059;936.9973;;;;
2019/12/25 04:30:01;;;;;;;1;0.4;;;;;;;6.32;79.75586;936.8898;;;;
2019/12/25 04:32:30;;;;;;;1.8;0.5;;;;;;;6.22;80.01953;936.9515;;;;
2019/12/25 04:35:02;;;;;;;1.8;0.6;;;;;;;6.19;80.79492;937.028;;;;
2019/12/25 04:37:27;;;;;;;1.2;0.5;;;;;;;6.21;79.32715;936.9543;;;;
2019/12/25 04:40:04;;;;;;;1.8;0.6;;;;;;;6.31;80.67969;937.0295;;;;
2019/12/25 04:42:41;;;;;;;2.2;0.7;;;;;;;6.42;80.06836;937.045;;;;
2019/12/25 04:45:05;;;;;;;1.4;0.6;;;;;;;6.41;79.72559;937.0754;;;;
2019/12/25 04:47:31;;;;;;;1.3;0.6;;;;;;;6.51;79.72168;937.1007;;;;
2019/12/25 04:49:55;;;;;;;1.3;0.5;;;;;;;6.55;81.12109;937.1222;;;;
2019/12/25 04:52:21;;;;;;;2.1;0.5;;;;;;;6.46;81.1377;937.1273;;;;
2019/12/25 04:54:52;;;;;;;1.9;0.6;;;;;;;6.61;81.56152;937.1725;;;;
2019/12/25 04:57:20;;;;;;;2.5;0.6;;;;;;;6.67;80.98535;937.0588;;;;
2019/12/25 04:59:51;;;;;;;1.2;0.5;;;;;;;6.51;81.61035;937.1995;;;;
2019/12/25 05:02:21;;;;;;;1.1;0.4;;;;;;;6.53;81.42383;936.981;;;;
2019/12/25 05:04:50;;;;;;;1.9;0.5;;;;;;;6.61;80.75977;937.1467;;;;
2019/12/25 05:07:18;;;;;;;1.3;0.7;;;;;;;6.6;82.39844;937.1961;;;;
2019/12/25 05:09:43;;;;;;;2.2;0.6;;;;;;;6.49;81.26758;937.1517;;;;
2019/12/25 05:12:07;;;;;;;2.1;0.5;;;;;;;6.58;81.30762;937.1711;;;;
2019/12/25 05:14:39;;;;;;;1.7;0.6;;;;;;;6.62;81.45215;937.1842;;;;
2019/12/25 05:17:47;;;;;;;2.7;1.2;;;;;;;6.64;82.3252;937.1861;;;;
2019/12/25 05:20:15;;;;;;;3.9;1.3;;;;;;;6.69;83.625;937.1383;;;;
2019/12/25 05:22:42;;;;;;;3.5;0.9;;;;;;;6.67;83.99512;937.3372;;;;
2019/12/25 05:25:07;;;;;;;3.4;0.9;;;;;;;6.62;84.62891;937.2894;;;;
2019/12/25 05:27:33;;;;;;;2.5;0.7;;;;;;;6.62;84.98047;937.3005;;;;
2019/12/25 05:30:00;;;;;;;4.5;1.4;;;;;;;6.63;84.93848;937.2651;;;;
2019/12/25 05:32:27;;;;;;;3.8;1.3;;;;;;;6.69;84.49609;937.2695;;;;
2019/12/25 05:34:52;;;;;;;3.8;1.3;;;;;;;;;;;;;
2019/12/25 05:37:20;;;;;;;5.2;1.3;;;;;;;;;;;;;
2019/12/25 05:39:42;;;;;;;1.5;0.6;;;;;;;;;;;;;
2019/12/25 05:42:10;;;;;;;3.3;1;;;;;;;;;;;;;
2019/12/25 05:44:33;;;;;;;3.4;0.9;;;;;;;;;;;;;
2019/12/25 05:46:58;;;;;;;2.4;0.6;;;;;;;;;;;;;
2019/12/25 05:49:23;;;;;;;3.3;0.7;;;;;;;;;;;;;
2019/12/25 05:51:51;;;;;;;1.7;0.7;;;;;;;;;;;;;
2019/12/25 05:54:14;;;;;;;2.6;0.8;;;;;;;;;;;;;
2019/12/25 05:56:38;;;;;;;2;0.7;;;;;;;;;;;;;
2019/12/25 05:59:04;;;;;;;2.4;0.6;;;;;;;;;;;;;
2019/12/25 06:01:32;;;;;;;2.1;0.7;;;;;;;;;;;;;
2019/12/25 06:03:55;;;;;;;2.6;0.7;;;;;;;;;;;;;
2019/12/25 06:06:22;;;;;;;2;0.8;;;;;;;;;;;;;
2019/12/25 06:08:48;;;;;;;2.3;0.7;;;;;;;;;;;;;
2019/12/25 06:11:13;;;;;;;1.5;0.6;;;;;;;;;;;;;
2019/12/25 06:13:37;;;;;;;2.2;0.8;;;;;;;;;;;;;
2019/12/25 06:16:04;;;;;;;2.4;0.8;;;;;;;;;;;;;
2019/12/25 06:18:31;;;;;;;3;0.9;;;;;;;;;;;;;
2019/12/25 06:20:55;;;;;;;4.2;2.7;;;;;;;;;;;;;
2019/12/25 06:23:20;;;;;;;3.7;2.3;;;;;;;;;;;;;
2019/12/25 06:25:45;;;;;;;3.8;1.6;;;;;;;;;;;;;
2019/12/25 06:28:11;;;;;;;2.1;0.9;;;;;;;;;;;;;
2019/12/25 06:30:36;;;;;;;2;0.7;;;;;;;;;;;;;
2019/12/25 06:33:02;;;;;;;2.9;1;;;;;;;;;;;;;
2019/12/25 06:35:35;;;;;;;2.5;0.9;;;;;;;;;;;;;
2019/12/25 06:37:53;;;;;;;3.4;0.9;;;;;;;;;;;;;
2019/12/25 06:40:19;;;;;;;2.6;1.1;;;;;;;;;;;;;
2019/12/25 06:42:46;;;;;;;2.4;0.8;;;;;;;;;;;;;
2019/12/25 06:45:11;;;;;;;2.4;1;;;;;;;;;;;;;
2019/12/25 06:47:36;;;;;;;2.2;0.8;;;;;;;;;;;;;
2019/12/25 06:50:02;;;;;;;3.1;1.2;;;;;;;;;;;;;
2019/12/25 06:52:28;;;;;;;3.2;1.3;;;;;;;;;;;;;
2019/12/25 06:54:54;;;;;;;3.1;1.1;;;;;;;;;;;;;
2019/12/25 06:57:18;;;;;;;2.8;1.2;;;;;;;;;;;;;
2019/12/25 06:59:45;;;;;;;3.4;1.2;;;;;;;;;;;;;
2019/12/25 07:02:13;;;;;;;2.6;1.1;;;;;;;;;;;;;
2019/12/25 07:04:43;;;;;;;3.3;1.4;;;;;;;;;;;;;
2019/12/25 07:07:00;;;;;;;3.2;1.1;;;;;;;;;;;;;
2019/12/25 07:09:26;;;;;;;1.9;1.1;;;;;;;;;;;;;
2019/12/25 07:11:51;;;;;;;1.5;0.9;;;;;;;;;;;;;
2019/12/25 07:14:17;;;;;;;2.8;1.2;;;;;;;;;;;;;
2019/12/25 07:16:45;;;;;;;3.5;1.1;;;;;;;;;;;;;
2019/12/25 07:19:11;;;;;;;2;1;;;;;;;;;;;;;
2019/12/25 07:21:32;;;;;;;3;1.4;;;;;;;;;;;;;
2019/12/25 07:23:59;;;;;;;2.7;1.6;;;;;;;;;;;;;
2019/12/25 07:26:29;;;;;;;3.4;2.4;;;;;;;;;;;;;
2019/12/25 07:28:53;;;;;;;3.6;2.3;;;;;;;;;;;;;
2019/12/25 07:31:41;;;;;;;2.4;1.8;;;;;;;;;;;;;
2019/12/25 07:33:45;;;;;;;3.4;1.4;;;;;;;;;;;;;
2019/12/25 07:36:10;;;;;;;2.7;1.8;;;;;;;;;;;;;
2019/12/25 07:38:36;;;;;;;3;2.1;;;;;;;;;;;;;
2019/12/25 07:41:06;;;;;;;3.8;2.6;;;;;;;;;;;;;
2019/12/25 07:43:30;;;;;;;3.9;2.7;;;;;;;;;;;;;
2019/12/25 07:45:53;;;;;;;3.2;1.8;;;;;;;;;;;;;
2019/12/25 07:48:21;;;;;;;2.7;1.9;;;;;;;;;;;;;
2019/12/25 07:50:46;;;;;;;3.2;2.3;;;;;;;;;;;;;
2019/12/25 07:53:10;;;;;;;6;2.7;;;;;;;;;;;;;
2019/12/25 07:55:38;;;;;;;4.7;2.8;;;;;;;;;;;;;
2019/12/25 07:58:03;;;;;;;5.3;3.2;;;;;;;;;;;;;
2019/12/25 08:00:28;;;;;;;11.3;8.8;;;;;;;;;;;;;
2019/12/25 08:02:55;;;;;;;6.3;4.2;;;;;;;;;;;;;
2019/12/25 08:05:20;;;;;;;5.4;3.4;;;;;;;;;;;;;
2019/12/25 08:07:44;;;;;;;5.4;3.6;;;;;;;;;;;;;
2019/12/25 08:10:10;;;;;;;3.8;2.7;;;;;;;;;;;;;
2019/12/25 08:12:36;;;;;;;2.9;2.2;;;;;;;;;;;;;
2019/12/25 08:15:02;;;;;;;0.6;0.4;;;;;;;;;;;;;
2019/12/25 08:17:26;;;;;;;3.1;2.1;;;;;;;;;;;;;
2019/12/25 08:19:51;;;;;;;2.2;1.5;;;;;;;;;;;;;
2019/12/25 08:22:19;;;;;;;1.7;1;;;;;;;;;;;;;
2019/12/25 08:24:42;;;;;;;3.5;2.5;;;;;;;;;;;;;
2019/12/25 08:27:08;;;;;;;2.6;1.8;;;;;;;;;;;;;
2019/12/25 08:29:32;;;;;;;3.8;3;;;;;;;;;;;;;
2019/12/25 08:32:00;;;;;;;2.6;2;;;;;;;;;;;;;
2019/12/25 08:34:43;;;;;;;1.7;1.2;;;;;;;;;;;;;
2019/12/25 08:37:07;;;;;;;1.7;1.3;;;;;;;;;;;;;
2019/12/25 08:39:31;;;;;;;2.1;1.4;;;;;;;;;;;;;
2019/12/25 08:41:55;;;;;;;1.4;1.1;;;;;;;;;;;;;
2019/12/25 08:44:23;;;;;;;2.2;1.5;;;;;;;;;;;;;
2019/12/25 08:46:46;;;;;;;2.2;1.5;;;;;;;;;;;;;
2019/12/25 08:49:11;;;;;;;3.2;1.5;;;;;;;;;;;;;
2019/12/25 08:51:36;;;;;;;1.5;0.9;;;;;;;;;;;;;
2019/12/25 08:54:05;;;;;;;2.1;0.9;;;;;;;;;;;;;
2019/12/25 08:56:27;;;;;;;0.9;0.7;;;;;;;;;;;;;
2019/12/25 08:58:53;;;;;;;1.3;0.8;;;;;;;;;;;;;
2019/12/25 09:01:18;;;;;;;1.1;0.9;;;;;;;;;;;;;
2019/12/25 09:03:45;;;;;;;1.2;0.8;;;;;;;;;;;;;
2019/12/25 09:06:11;;;;;;;0.8;0.6;;;;;;;;;;;;;
2019/12/25 09:08:36;;;;;;;0.6;0.3;;;;;;;;;;;;;
2019/12/25 09:11:05;;;;;;;0.9;0.7;;;;;;;;;;;;;
2019/12/25 09:13:43;;;;;;;1.2;0.9;;;;;;;;;;;;;
2019/12/25 09:16:00;;;;;;;0.5;0.4;;;;;;;;;;;;;
2019/12/25 09:18:24;;;;;;;0.9;0.4;;;;;;;;;;;;;
2019/12/25 09:20:49;;;;;;;0.3;0.2;;;;;;;;;;;;;
2019/12/25 09:23:57;;;;;;;0.3;0.1;;;;;;;;;;;;;
2019/12/25 09:25:56;;;;;;;0.2;0.2;;;;;;;;;;;;;
2019/12/25 09:28:20;;;;;;;0.3;0.2;;;;;;;;;;;;;
2019/12/25 09:30:47;;;;;;;0.8;0.2;;;;;;;;;;;;;
2019/12/25 09:33:11;;;;;;;1.2;0.3;;;;;;;;;;;;;
2019/12/25 09:35:36;;;;;;;1;0.5;;;;;;;;;;;;;
2019/12/25 09:38:08;;;;;;;0.4;0.2;;;;;;;;;;;;;
2019/12/25 09:40:47;;;;;;;0.2;0.2;;;;;;;;;;;;;
2019/12/25 09:43:10;;;;;;;0.3;0.2;;;;;;;;;;;;;
2019/12/25 09:45:35;;;;;;;0.2;0.1;;;;;;;;;;;;;
2019/12/25 09:48:40;;;;;;;0.2;0.2;;;;;;;;;;;;;
2019/12/25 09:50:54;;;;;;;0.3;0.2;;;;;;;;;;;;;
2019/12/25 09:53:32;;;;;;;0.6;0.3;;;;;;;;;;;;;
2019/12/25 09:55:45;;;;;;;0.9;0.1;;;;;;;;;;;;;
2019/12/25 09:58:09;;;;;;;0;0;;;;;;;;;;;;;
2019/12/25 10:00:45;;;;;;;0.2;0.2;;;;;;;;;;;;;
2019/12/25 10:03:07;;;;;;;0.5;0.2;;;;;;;;;;;;;
2019/12/25 10:05:33;;;;;;;0.4;0.2;;;;;;;;;;;;;
2019/12/25 10:08:01;;;;;;;0.4;0.2;;;;;;;;;;;;;
2019/12/25 10:10:26;;;;;;;0.8;0.3;;;;;;;;;;;;;
2019/12/25 10:12:54;;;;;;;0.1;0.1;;;;;;;;;;;;;
2019/12/25 10:15:23;;;;;;;0.4;0.2;;;;;;;;;;;;;
2019/12/25 10:17:41;;;;;;;0.8;0.2;;;;;;;;;;;;;
2019/12/25 10:20:09;;;;;;;0.5;0.2;;;;;;;;;;;;;
2019/12/25 10:22:31;;;;;;;0.3;0.3;;;;;;;;;;;;;
2019/12/25 10:25:00;;;;;;;0.7;0.5;;;;;;;;;;;;;
2019/12/25 10:27:47;;;;;;;1;0.2;;;;;;;;;;;;;
2019/12/25 10:30:00;;;;;;;0.6;0.4;;;;;;;;;;;;;
2019/12/25 10:32:18;;;;;;;0.6;0.3;;;;;;;;;;;;;
2019/12/25 10:34:42;;;;;;;0.2;0.2;;;;;;;;;;;;;
2019/12/25 10:37:18;;;;;;;0.7;0.4;;;;;;;;;;;;;
2019/12/25 10:39:47;;;;;;;0.7;0.5;;;;;;;;;;;;;
2019/12/25 10:42:08;;;;;;;1.3;0.4;;;;;;;;;;;;;
2019/12/25 10:44:35;;;;;;;1;0.4;;;;;;;;;;;;;
2019/12/25 10:47:03;;;;;;;0.6;0.3;;;;;;;;;;;;;
2019/12/25 10:49:23;;;;;;;0.7;0.5;;;;;;;;;;;;;
2019/12/25 10:51:51;;;;;;;1.7;0.8;;;;;;;;;;;;;
2019/12/25 10:54:17;;;;;;;2.6;1.1;;;;;;;;;;;;;
2019/12/25 10:56:38;;;;;;;1.2;0.5;;;;;;;;;;;;;
2019/12/25 10:59:04;;;;;;;1.4;0.9;;;;;;;;;;;;;
2019/12/25 11:01:30;;;;;;;1.3;0.8;;;;;;;;;;;;;
2019/12/25 11:03:56;;;;;;;1.3;0.6;;;;;;;;;;;;;
2019/12/25 11:06:42;;;;;;;5.8;4.6;;;;;;;;;;;;;
2019/12/25 11:08:51;;;;;;;0.8;0.6;;;;;;;;;;;;;
2019/12/25 11:11:17;;;;;;;3.4;2.3;;;;;;;;;;;;;
2019/12/25 11:13:50;;;;;;;4.6;2.6;;;;;;;;;;;;;
2019/12/25 11:16:12;;;;;;;0.2;0.2;;;;;;;;;;;;;
2019/12/25 11:18:39;;;;;;;1.7;1;;;;;;;;;;;;;
2019/12/25 11:21:03;;;;;;;18.5;14.1;;;;;;;;;;;;;
2019/12/25 11:23:30;;;;;;;0.9;0.7;;;;;;;;;;;;;
2019/12/25 11:25:54;;;;;;;0.8;0.5;;;;;;;;;;;;;
2019/12/25 11:28:20;;;;;;;0.8;0.4;;;;;;;;;;;;;
2019/12/25 11:30:50;;;;;;;0.6;0.3;;;;;;;;;;;;;
2019/12/25 11:33:09;;;;;;;1;0.6;;;;;;;;;;;;;
2019/12/25 11:35:39;;;;;;;0.6;0.6;;;;;;;;;;;;;
2019/12/25 11:37:59;;;;;;;1;0.9;;;;;;;;;;;;;
2019/12/25 11:40:28;;;;;;;2.7;2.4;;;;;;;;;;;;;
2019/12/25 11:42:54;;;;;;;1.1;0.7;;;;;;;;;;;;;
2019/12/25 11:45:17;;;;;;;1.4;0.8;;;;;;;;;;;;;
2019/12/25 11:47:50;;;;;;;1;0.6;;;;;;;;;;;;;
2019/12/25 11:50:23;;;;;;;0.6;0.4;;;;;;;;;;;;;
2019/12/25 11:52:44;;;;;;;0.6;0.3;;;;;;;;;;;;;
2019/12/25 11:55:07;;;;;;;0.6;0.4;;;;;;;;;;;;;
2019/12/25 11:57:36;;;;;;;1.4;0.8;;;;;;;;;;;;;
2019/12/25 11:59:59;;;;;;;3.2;1.9;;;;;;;;;;;;;
2019/12/25 12:02:24;;;;;;;2.2;1.2;;;;;;;;;;;;;
2019/12/25 12:04:49;;;;;;;1;0.6;;;;;;;;;;;;;
2019/12/25 12:07:20;;;;;;;1.3;0.5;;;;;;;;;;;;;
2019/12/25 12:09:48;;;;;;;2.1;0.6;;;;;;;;;;;;;
2019/12/25 12:12:17;;;;;;;0.7;0.5;;;;;;;;;;;;;
2019/12/25 12:14:50;;;;;;;0.9;0.4;;;;;;;;;;;;;
2019/12/25 12:17:11;;;;;;;0.5;0.3;;;;;;;;;;;;;
2019/12/25 12:20:27;;;;;;;0.5;0.2;;;;;;;;;;;;;
2019/12/25 12:22:08;;;;;;;1;0.4;;;;;;;;;;;;;
2019/12/25 12:25:02;;;;;;;1.1;0.2;;;;;;;;;;;;;
2019/12/25 12:27:14;;;;;;;0.9;0.4;;;;;;;;;;;;;
2019/12/25 12:29:35;;;;;;;2.2;1.1;;;;;;;;;;;;;
2019/12/25 12:32:01;;;;;;;1.3;0.4;;;;;;;;;;;;;
2019/12/25 12:34:32;;;;;;;0.7;0.3;;;;;;;;;;;;;
2019/12/25 12:36:54;;;;;;;0.7;0.5;;;;;;;;;;;;;
2019/12/25 12:39:22;;;;;;;0.3;0.2;;;;;;;;;;;;;
2019/12/25 12:41:43;;;;;;;1;0.3;;;;;;;;;;;;;
2019/12/25 12:44:07;;;;;;;1;0.6;;;;;;;;;;;;;
2019/12/25 12:46:35;;;;;;;1.8;0.7;;;;;;;;;;;;;
2019/12/25 12:49:00;;;;;;;1.5;0.6;;;;;;;;;;;;;
2019/12/25 12:51:25;;;;;;;1.1;0.9;;;;;;;;;;;;;
2019/12/25 12:53:51;;;;;;;1.2;0.6;;;;;;;;;;;;;
2019/12/25 12:56:15;;;;;;;2.2;0.6;;;;;;;;;;;;;
2019/12/25 12:58:43;;;;;;;1.4;0.6;;;;;;;;;;;;;
2019/12/25 13:01:10;;;;;;;0.9;0.6;;;;;;;;;;;;;
2019/12/25 13:03:33;;;;;;;0.6;0.3;;;;;;;;;;;;;
2019/12/25 13:05:57;;;;;;;0.4;0.3;;;;;;;;;;;;;
2019/12/25 13:08:27;;;;;;;2.5;0.5;;;;;;;;;;;;;
2019/12/25 13:10:51;;;;;;;0.6;0.4;;;;;;;;;;;;;
2019/12/25 13:13:16;;;;;;;1.3;0.5;;;;;;;;;;;;;
2019/12/25 13:15:45;;;;;;;2.9;2.5;;;;;;;;;;;;;
2019/12/25 13:18:11;;;;;;;1.4;1;;;;;;;;;;;;;
2019/12/25 13:20:36;;;;;;;1.7;1.4;;;;;;;;;;;;;
2019/12/25 13:23:03;;;;;;;3.3;2.5;;;;;;;;;;;;;
2019/12/25 13:25:26;;;;;;;2.6;1;;;;;;;;;;;;;
2019/12/25 13:27:51;;;;;;;1.4;0.7;;;;;;;;;;;;;
2019/12/25 13:30:19;;;;;;;1;0.8;;;;;;;;;;;;;
2019/12/25 13:32:42;;;;;;;2.9;0.8;;;;;;;;;;;;;
2019/12/25 13:35:07;;;;;;;1.4;1.1;;;;;;;;;;;;;
2019/12/25 13:37:31;;;;;;;3.5;2.9;;;;;;;;;;;;;
2019/12/25 13:40:02;;;;;;;1.4;0.9;;;;;;;;;;;;;
2019/12/25 13:42:31;;;;;;;1.5;0.9;;;;;;;;;;;;;
2019/12/25 13:44:55;;;;;;;7.9;6.3;;;;;;;;;;;;;
2019/12/25 13:47:18;;;;;;;1;0.7;;;;;;;;;;;;;
2019/12/25 13:49:43;;;;;;;1.4;0.9;;;;;;;;;;;;;
2019/12/25 13:52:12;;;;;;;1.5;1.1;;;;;;;;;;;;;
2019/12/25 13:54:36;;;;;;;1.7;0.8;;;;;;;;;;;;;
2019/12/25 13:57:03;;;;;;;1.6;0.8;;;;;;;;;;;;;
2019/12/25 13:59:24;;;;;;;0.5;0.4;;;;;;;;;;;;;
2019/12/25 14:01:57;;;;;;;1;0.7;;;;;;;;;;;;;
2019/12/25 14:04:20;;;;;;;2;0.8;;;;;;;;;;;;;
2019/12/25 14:06:52;;;;;;;2.8;2.2;;;;;;;;;;;;;
2019/12/25 14:09:17;;;;;;;2.5;1.1;;;;;;;;;;;;;
2019/12/25 14:11:47;;;;;;;1.7;1.2;;;;;;;;;;;;;
2019/12/25 14:14:43;;;;;;;2.4;1.3;;;;;;;;;;;;;
2019/12/25 14:16:55;;;;;;;1.5;0.8;;;;;;;;;;;;;
2019/12/25 14:19:42;;;;;;;1.9;0.9;;;;;;;;;;;;;
2019/12/25 14:24:24;;;;;;;0.5;0.4;;;;;;;;;;;;;
2019/12/25 14:26:56;;;;;;;1.1;0.6;;;;;;;;;;;;;
2019/12/25 14:29:20;;;;;;;2.4;1.9;;;;;;;;;;;;;
2019/12/25 14:31:41;;;;;;;3.2;1.7;;;;;;;;;;;;;
2019/12/25 14:34:14;;;;;;;1.4;1;;;;;;;;;;;;;
2019/12/25 14:36:40;;;;;;;1.5;1;;;;;;;;;;;;;
2019/12/25 14:39:00;;;;;;;1.1;0.9;;;;;;;;;;;;;
2019/12/25 14:41:26;;;;;;;1;0.9;;;;;;;;;;;;;
2019/12/25 14:43:53;;;;;;;3.3;2.5;;;;;;;;;;;;;
2019/12/25 14:46:20;;;;;;;2.9;2.5;;;;;;;;;;;;;
2019/12/25 14:48:41;;;;;;;2.8;1.9;;;;;;;;;;;;;
2019/12/25 14:51:10;;;;;;;1;0.6;;;;;;;;;;;;;
2019/12/25 14:53:52;;;;;;;0.6;0.5;;;;;;;;;;;;;
2019/12/25 14:56:14;;;;;;;2;0.9;;;;;;;;;;;;;
2019/12/25 14:58:39;;;;;;;3.3;2.1;;;;;;;;;;;;;
2019/12/25 15:01:10;;;;;;;2.4;1.2;;;;;;;;;;;;;
2019/12/25 15:03:44;;;;;;;1;0.8;;;;;;;;;;;;;
2019/12/25 15:05:58;;;;;;;2;1.8;;;;;;;;;;;;;
2019/12/25 15:08:26;;;;;;;2.1;1.7;;;;;;;;;;;;;
2019/12/25 15:10:51;;;;;;;0.4;0.4;;;;;;;;;;;;;
2019/12/25 15:13:14;;;;;;;2.1;1.9;;;;;;;;;;;;;
2019/12/25 15:15:39;;;;;;;0.6;0.5;;;;;;;;;;;;;
2019/12/25 15:18:05;;;;;;;1.3;0.5;;;;;;;;;;;;;
2019/12/25 15:20:31;;;;;;;9.6;7.7;;;;;;;;;;;;;
2019/12/25 15:22:54;;;;;;;6.4;5.1;;;;;;;;;;;;;
2019/12/25 15:25:29;;;;;;;4.1;3.4;;;;;;;;;;;;;
2019/12/25 15:27:48;;;;;;;2.8;2;;;;;;;;;;;;;
2019/12/25 15:30:15;;;;;;;1.9;1.7;;;;;;;;;;;;;
2019/12/25 15:32:44;;;;;;;1;0.7;;;;;;;;;;;;;
2019/12/25 15:35:05;;;;;;;2.4;1.7;;;;;;;;;;;;;
2019/12/25 15:37:31;;;;;;;1.1;0.6;;;;;;;;;;;;;
2019/12/25 15:39:55;;;;;;;0.6;0.3;;;;;;;;;;;;;
2019/12/25 15:42:23;;;;;;;0.5;0.2;;;;;;;;;;;;;
2019/12/25 15:44:49;;;;;;;1.2;0.7;;;;;;;;;;;;;
2019/12/25 15:47:12;;;;;;;2.7;1.6;;;;;;;;;;;;;
2019/12/25 15:49:39;;;;;;;6.1;4.8;;;;;;;;;;;;;
2019/12/25 15:52:05;;;;;;;6.7;5.3;;;;;;;;;;;;;
2019/12/25 15:54:27;;;;;;;5.3;4.6;;;;;;;;;;;;;
2019/12/25 15:56:54;;;;;;;4.8;4.1;;;;;;;;;;;;;
2019/12/25 15:59:19;;;;;;;5.5;4.3;;;;;;;;;;;;;
2019/12/25 16:01:46;;;;;;;5.7;4.6;;;;;;;;;;;;;
2019/12/25 16:04:10;;;;;;;7.3;6.4;;;;;;;;;;;;;
2019/12/25 16:06:35;;;;;;;4.5;3.8;;;;;;;;;;;;;
2019/12/25 16:09:05;;;;;;;6.5;4;;;;;;;;;;;;;
2019/12/25 16:11:26;;;;;;;3.1;2.5;;;;;;;;;;;;;
2019/12/25 16:13:52;;;;;;;2.7;2.2;;;;;;;;;;;;;
2019/12/25 16:16:16;;;;;;;4;3.2;;;;;;;;;;;;;
2019/12/25 16:18:44;;;;;;;11.3;7.9;;;;;;;;;;;;;
2019/12/25 16:21:08;;;;;;;9.9;8;;;;;;;;;;;;;
2019/12/25 16:23:33;;;;;;;8.8;6.9;;;;;;;;;;;;;
2019/12/25 16:26:11;;;;;;;7.4;6.2;;;;;;;;;;;;;
2019/12/25 16:28:24;;;;;;;8.3;6.3;;;;;;;;;;;;;
2019/12/25 16:30:49;;;;;;;6.4;5.2;;;;;;;;;;;;;
2019/12/25 16:33:15;;;;;;;2.7;2.3;;;;;;;;;;;;;
2019/12/25 16:35:43;;;;;;;2.3;1.8;;;;;;;;;;;;;
2019/12/25 16:38:11;;;;;;;3;1.8;;;;;;;;;;;;;
2019/12/25 16:40:34;;;;;;;3.4;2.8;;;;;;;;;;;;;
2019/12/25 16:42:56;;;;;;;2.4;1.5;;;;;;;;;;;;;
2019/12/25 16:45:23;;;;;;;2;1.4;;;;;;;;;;;;;
2019/12/25 16:47:46;;;;;;;14.1;10.9;;;;;;;;;;;;;
2019/12/25 16:50:11;;;;;;;10.1;7.5;;;;;;;;;;;;;
2019/12/25 16:52:43;;;;;;;10.5;8.3;;;;;;;;;;;;;
2019/12/25 16:55:12;;;;;;;10.9;9.4;;;;;;;;;;;;;
2019/12/25 16:57:44;;;;;;;2;1.2;;;;;;;;;;;;;
2019/12/25 17:00:09;;;;;;;2.5;1.3;;;;;;;;;;;;;
2019/12/25 17:02:49;;;;;;;2.1;1.4;;;;;;;;;;;;;
2019/12/25 17:05:03;;;;;;;2.9;1.6;;;;;;;;;;;;;
2019/12/25 17:07:34;;;;;;;4.3;2.6;;;;;;;;;;;;;
2019/12/25 17:09:55;;;;;;;6.8;5.7;;;;;;;;;;;;;
2019/12/25 17:12:20;;;;;;;6;5.2;;;;;;;;;;;;;
2019/12/25 17:14:47;;;;;;;4.6;3;;;;;;;;;;;;;
2019/12/25 17:17:45;;;;;;;3.3;2;;;;;;;;;;;;;
2019/12/25 17:19:51;;;;;;;3.9;2.7;;;;;;;;;;;;;
2019/12/25 17:22:18;;;;;;;2.5;1.7;;;;;;;;;;;;;
2019/12/25 17:24:45;;;;;;;3.5;2.5;;;;;;;;;;;;;
2019/12/25 17:27:13;;;;;;;2.1;1.4;;;;;;;;;;;;;
2019/12/25 17:29:36;;;;;;;2.2;1.6;;;;;;;;;;;;;
2019/12/25 17:32:05;;;;;;;2.5;1.5;;;;;;;;;;;;;
2019/12/25 17:34:31;;;;;;;4.3;2.4;;;;;;;;;;;;;
2019/12/25 17:36:55;;;;;;;4.4;3.2;;;;;;;;;;;;;
2019/12/25 17:39:22;;;;;;;5.4;3.5;;;;;;;;;;;;;
2019/12/25 17:41:47;;;;;;;2.6;2;;;;;;;;;;;;;
2019/12/25 17:44:14;;;;;;;2.4;1.4;;;;;;;;;;;;;
2019/12/25 17:46:43;;;;;;;1.3;1.1;;;;;;;;;;;;;
2019/12/25 17:49:09;;;;;;;1.5;1.3;;;;;;;;;;;;;
2019/12/25 17:51:31;;;;;;;2;1.1;;;;;;;;;;;;;
2019/12/25 17:53:58;;;;;;;1.3;1.1;;;;;;;;;;;;;
2019/12/25 17:56:25;;;;;;;1.4;1.2;;;;;;;;;;;;;
2019/12/25 17:58:49;;;;;;;2.1;1.4;;;;;;;;;;;;;
2019/12/25 18:01:14;;;;;;;1.7;1.4;;;;;;;;;;;;;
2019/12/25 18:04:43;;;;;;;2.3;1.6;;;;;;;;;;;;;
2019/12/25 18:06:10;;;;;;;3.8;2.2;;;;;;;;;;;;;
2019/12/25 18:08:37;;;;;;;12.9;10;;;;;;;;;;;;;
2019/12/25 18:11:05;;;;;;;5.7;5.1;;;;;;;;;;;;;
2019/12/25 18:13:25;;;;;;;5;4.5;;;;;;;;;;;;;
2019/12/25 18:15:51;;;;;;;5.2;4.3;;;;;;;;;;;;;
2019/12/25 18:18:43;;;;;;;4.9;3.8;;;;;;;;;;;;;
2019/12/25 18:20:48;;;;;;;4.8;3.9;;;;;;;;;;;;;
2019/12/25 18:23:14;;;;;;;5.8;3.8;;;;;;;;;;;;;
2019/12/25 18:25:38;;;;;;;4.6;3.8;;;;;;;;;;;;;
2019/12/25 18:28:04;;;;;;;5.2;4.2;;;;;;;;;;;;;
2019/12/25 18:30:36;;;;;;;8;6;;;;;;;;;;;;;
2019/12/25 18:32:56;;;;;;;7.3;6.1;;;;;;;;;;;;;
2019/12/25 18:35:22;;;;;;;10.8;9.2;;;;;;;;;;;;;
2019/12/25 18:37:47;;;;;;;7.7;6.6;;;;;;;;;;;;;
2019/12/25 18:40:17;;;;;;;7.7;5.7;;;;;;;;;;;;;
2019/12/25 18:45:03;;;;;;;6.1;4.6;;;;;;;;;;;;;